sensor_id;sensor_type;location;lat;lon;timestamp;pressure;altitude;pressure_sealevel;temperature;humidity
3844;BME280;1937;51.444;6.484;2023-01-13T00:00:37;81633.81;;;9.91;100.00
3844;BME280;1937;51.444;6.484;2023-01-13T00:03:07;81550.78;;;9.86;100.00
3844;BME280;1937;51.444;6.484;2023-01-13T00:05:35;81690.88;;;9.87;100.00
3844;BME280;1937;51.444;6.484;2023-01-13T00:08:04;81487.88;;;9.84;100.00
3844;BME280;1937;51.444;6.484;2023-01-13T00:10:33;82088.44;;;9.93;100.00
3844;BME280;1937;51.444;6.484;2023-01-13T00:13:02;81802.31;;;9.91;100.00
3844;BME280;1937;51.444;6.484;2023-01-13T00:15:32;82283.28;;;9.97;100.00
3844;BME280;1937;51.444;6.484;2023-01-13T00:18:00;81877.19;;;9.91;100.00
3844;BME280;1937;51.444;6.484;2023-01-13T00:20:29;82548.44;;;10.06;100.00
3844;BME280;1937;51.444;6.484;2023-01-13T00:22:57;82131.66;;;10.03;100.00
3844;BME280;1937;51.444;6.484;2023-01-13T00:25:26;81615.41;;;10.05;100.00
3844;BME280;1937;51.444;6.484;2023-01-13T00:27:55;81245.16;;;10.08;100.00
3844;BME280;1937;51.444;6.484;2023-01-13T00:30:23;79953.63;;;9.83;100.00
3844;BME280;1937;51.444;6.484;2023-01-13T00:32:53;79605.56;;;9.77;100.00
3844;BME280;1937;51.444;6.484;2023-01-13T00:35:21;79236.28;;;9.81;100.00
3844;BME280;1937;51.444;6.484;2023-01-13T00:37:50;78413.72;;;9.62;100.00
3844;BME280;1937;51.444;6.484;2023-01-13T00:40:18;78446.13;;;9.65;100.00
3844;BME280;1937;51.444;6.484;2023-01-13T00:42:46;78021.38;;;9.52;100.00
3844;BME280;1937;51.444;6.484;2023-01-13T00:45:32;77968.47;;;9.76;100.00
3844;BME280;1937;51.444;6.484;2023-01-13T00:48:02;77246.44;;;9.54;100.00
3844;BME280;1937;51.444;6.484;2023-01-13T00:50:31;77304.63;;;9.43;100.00
3844;BME280;1937;51.444;6.484;2023-01-13T00:53:00;77586.59;;;9.54;100.00
3844;BME280;1937;51.444;6.484;2023-01-13T00:55:31;77402.72;;;9.63;100.00
3844;BME280;1937;51.444;6.484;2023-01-13T00:58:00;77045.75;;;9.62;100.00
3844;BME280;1937;51.444;6.484;2023-01-13T01:00:32;76491.47;;;9.52;100.00
3844;BME280;1937;51.444;6.484;2023-01-13T01:03:01;76337.81;;;9.37;100.00
3844;BME280;1937;51.444;6.484;2023-01-13T01:05:31;76258.34;;;9.53;100.00
3844;BME280;1937;51.444;6.484;2023-01-13T01:08:00;75695.41;;;9.44;100.00
3844;BME280;1937;51.444;6.484;2023-01-13T01:10:29;74812.22;;;9.16;100.00
3844;BME280;1937;51.444;6.484;2023-01-13T01:12:58;74655.81;;;9.38;100.00
3844;BME280;1937;51.444;6.484;2023-01-13T01:15:26;73909.28;;;9.44;100.00
3844;BME280;1937;51.444;6.484;2023-01-13T01:17:54;73087.28;;;9.35;100.00
3844;BME280;1937;51.444;6.484;2023-01-13T01:20:24;72942.22;;;9.47;100.00
3844;BME280;1937;51.444;6.484;2023-01-13T01:22:52;72557.09;;;9.41;100.00
3844;BME280;1937;51.444;6.484;2023-01-13T01:25:21;72224.16;;;9.36;100.00
3844;BME280;1937;51.444;6.484;2023-01-13T01:27:49;72077.34;;;9.40;100.00
3844;BME280;1937;51.444;6.484;2023-01-13T01:30:18;72060.38;;;9.45;100.00
3844;BME280;1937;51.444;6.484;2023-01-13T01:32:46;71833.59;;;9.41;100.00
3844;BME280;1937;51.444;6.484;2023-01-13T01:35:14;71755.19;;;9.40;100.00
3844;BME280;1937;51.444;6.484;2023-01-13T01:37:44;71505.09;;;9.39;100.00
3844;BME280;1937;51.444;6.484;2023-01-13T01:40:13;71224.25;;;9.37;100.00
3844;BME280;1937;51.444;6.484;2023-01-13T01:42:41;71001.53;;;9.42;100.00
3844;BME280;1937;51.444;6.484;2023-01-13T01:45:28;70675.81;;;9.38;98.61
3844;BME280;1937;51.444;6.484;2023-01-13T01:48:01;70582.59;;;9.29;99.66
3844;BME280;1937;51.444;6.484;2023-01-13T01:50:30;70419.28;;;9.30;98.88
3844;BME280;1937;51.444;6.484;2023-01-13T01:53:04;70302.25;;;9.31;99.18
3844;BME280;1937;51.444;6.484;2023-01-13T01:55:36;70285.63;;;9.39;98.49
3844;BME280;1937;51.444;6.484;2023-01-13T01:58:09;70188.38;;;9.24;98.67
3844;BME280;1937;51.444;6.484;2023-01-13T02:00:40;70158.00;;;9.27;99.08
3844;BME280;1937;51.444;6.484;2023-01-13T02:03:09;70064.88;;;9.18;98.95
3844;BME280;1937;51.444;6.484;2023-01-13T02:05:40;70030.97;;;9.32;97.98
3844;BME280;1937;51.444;6.484;2023-01-13T02:08:12;69936.69;;;9.14;98.62
3844;BME280;1937;51.444;6.484;2023-01-13T02:10:44;69901.91;;;9.23;97.75
3844;BME280;1937;51.444;6.484;2023-01-13T02:13:15;69855.31;;;9.27;97.24
3844;BME280;1937;51.444;6.484;2023-01-13T02:15:50;69769.34;;;9.18;97.34
3844;BME280;1937;51.444;6.484;2023-01-13T02:18:32;69682.59;;;9.18;97.43
3844;BME280;1937;51.444;6.484;2023-01-13T02:21:26;69601.88;;;9.15;96.60
3844;BME280;1937;51.444;6.484;2023-01-13T02:24:22;69494.25;;;9.04;96.97
3844;BME280;1937;51.444;6.484;2023-01-13T02:27:48;69393.44;;;9.04;96.18
3844;BME280;1937;51.444;6.484;2023-01-13T02:30:28;69241.91;;;9.04;94.50
3844;BME280;1937;51.444;6.484;2023-01-13T02:33:25;69130.66;;;9.06;93.81
3844;BME280;1937;51.444;6.484;2023-01-13T02:35:59;69076.50;;;9.01;93.90
3844;BME280;1937;51.444;6.484;2023-01-13T02:38:32;69043.28;;;8.99;94.02
3844;BME280;1937;51.444;6.484;2023-01-13T02:41:06;68975.16;;;9.00;93.96
3844;BME280;1937;51.444;6.484;2023-01-13T02:43:59;68850.06;;;8.92;93.80
3844;BME280;1937;51.444;6.484;2023-01-13T02:46:41;68848.09;;;8.99;92.72
3844;BME280;1937;51.444;6.484;2023-01-13T02:49:16;68736.28;;;8.87;92.69
3844;BME280;1937;51.444;6.484;2023-01-13T02:51:48;68776.75;;;8.80;92.74
3844;BME280;1937;51.444;6.484;2023-01-13T02:54:20;68641.09;;;8.76;92.43
3844;BME280;1937;51.444;6.484;2023-01-13T02:56:50;68602.59;;;8.76;92.06
3844;BME280;1937;51.444;6.484;2023-01-13T02:59:23;68572.38;;;8.70;92.31
3844;BME280;1937;51.444;6.484;2023-01-13T03:01:56;68517.88;;;8.69;91.96
3844;BME280;1937;51.444;6.484;2023-01-13T03:04:50;68561.34;;;8.71;92.24
3844;BME280;1937;51.444;6.484;2023-01-13T03:07:43;68459.47;;;8.63;91.19
3844;BME280;1937;51.444;6.484;2023-01-13T03:10:26;68499.91;;;8.76;91.26
3844;BME280;1937;51.444;6.484;2023-01-13T03:13:05;68376.59;;;8.58;91.84
3844;BME280;1937;51.444;6.484;2023-01-13T03:15:42;68444.09;;;8.50;92.71
3844;BME280;1937;51.444;6.484;2023-01-13T03:18:22;68487.50;;;8.72;91.26
3844;BME280;1937;51.444;6.484;2023-01-13T03:21:01;68464.16;;;8.74;91.51
3844;BME280;1937;51.444;6.484;2023-01-13T03:23:34;68407.56;;;8.62;91.54
3844;BME280;1937;51.444;6.484;2023-01-13T03:26:09;68403.19;;;8.68;91.55
3844;BME280;1937;51.444;6.484;2023-01-13T03:28:41;68445.38;;;8.82;91.63
3844;BME280;1937;51.444;6.484;2023-01-13T03:31:14;68442.47;;;8.66;92.01
3844;BME280;1937;51.444;6.484;2023-01-13T03:33:50;68481.38;;;8.69;92.41
3844;BME280;1937;51.444;6.484;2023-01-13T03:36:22;68497.34;;;8.76;92.77
3844;BME280;1937;51.444;6.484;2023-01-13T03:38:55;68504.03;;;8.79;92.75
3844;BME280;1937;51.444;6.484;2023-01-13T03:41:28;68478.53;;;8.84;91.81
3844;BME280;1937;51.444;6.484;2023-01-13T03:44:05;68407.94;;;8.65;91.97
3844;BME280;1937;51.444;6.484;2023-01-13T03:47:01;68423.50;;;8.70;91.35
3844;BME280;1937;51.444;6.484;2023-01-13T03:49:36;68361.19;;;8.58;91.14
3844;BME280;1937;51.444;6.484;2023-01-13T03:52:09;68335.31;;;8.60;91.18
3844;BME280;1937;51.444;6.484;2023-01-13T03:54:44;68359.00;;;8.60;90.36
3844;BME280;1937;51.444;6.484;2023-01-13T03:57:16;68310.22;;;8.60;90.36
3844;BME280;1937;51.444;6.484;2023-01-13T03:59:50;68270.63;;;8.53;90.58
3844;BME280;1937;51.444;6.484;2023-01-13T04:02:29;68281.63;;;8.58;90.30
3844;BME280;1937;51.444;6.484;2023-01-13T04:05:03;68274.09;;;8.62;90.42
3844;BME280;1937;51.444;6.484;2023-01-13T04:07:43;68301.13;;;8.68;90.29
3844;BME280;1937;51.444;6.484;2023-01-13T04:10:15;68280.53;;;8.75;89.01
3844;BME280;1937;51.444;6.484;2023-01-13T04:12:47;68209.94;;;8.62;89.37
3844;BME280;1937;51.444;6.484;2023-01-13T04:15:31;68218.28;;;8.56;89.84
3844;BME280;1937;51.444;6.484;2023-01-13T04:18:09;68283.69;;;8.75;89.87
3844;BME280;1937;51.444;6.484;2023-01-13T04:20:40;68259.88;;;8.63;90.13
3844;BME280;1937;51.444;6.484;2023-01-13T04:23:10;68264.34;;;8.76;90.34
3844;BME280;1937;51.444;6.484;2023-01-13T04:25:40;68220.41;;;8.60;90.24
3844;BME280;1937;51.444;6.484;2023-01-13T04:28:09;68277.25;;;8.63;91.32
3844;BME280;1937;51.444;6.484;2023-01-13T04:30:41;68294.16;;;8.73;91.08
3844;BME280;1937;51.444;6.484;2023-01-13T04:33:10;68276.47;;;8.65;90.46
3844;BME280;1937;51.444;6.484;2023-01-13T04:35:40;68279.06;;;8.58;90.84
3844;BME280;1937;51.444;6.484;2023-01-13T04:38:10;68291.44;;;8.69;91.23
3844;BME280;1937;51.444;6.484;2023-01-13T04:40:39;68307.38;;;8.76;90.63
3844;BME280;1937;51.444;6.484;2023-01-13T04:43:08;68338.16;;;8.82;90.73
3844;BME280;1937;51.444;6.484;2023-01-13T04:45:37;68353.94;;;8.85;91.28
3844;BME280;1937;51.444;6.484;2023-01-13T04:48:06;68329.91;;;8.75;91.91
3844;BME280;1937;51.444;6.484;2023-01-13T04:50:34;68350.28;;;8.64;93.01
3844;BME280;1937;51.444;6.484;2023-01-13T04:53:04;68336.91;;;8.57;92.72
3844;BME280;1937;51.444;6.484;2023-01-13T04:55:33;68389.78;;;8.60;92.46
3844;BME280;1937;51.444;6.484;2023-01-13T04:58:03;68334.41;;;8.44;93.38
3844;BME280;1937;51.444;6.484;2023-01-13T05:00:32;68443.91;;;8.58;93.37
3844;BME280;1937;51.444;6.484;2023-01-13T05:03:01;68412.47;;;8.65;92.61
3844;BME280;1937;51.444;6.484;2023-01-13T05:05:30;68361.94;;;8.63;92.88
3844;BME280;1937;51.444;6.484;2023-01-13T05:07:59;68389.00;;;8.62;92.42
3844;BME280;1937;51.444;6.484;2023-01-13T05:10:29;68353.06;;;8.62;92.27
3844;BME280;1937;51.444;6.484;2023-01-13T05:12:58;68353.69;;;8.56;92.00
3844;BME280;1937;51.444;6.484;2023-01-13T05:15:44;68376.56;;;8.65;91.77
3844;BME280;1937;51.444;6.484;2023-01-13T05:18:31;68351.09;;;8.62;92.05
3844;BME280;1937;51.444;6.484;2023-01-13T05:20:59;68359.72;;;8.72;91.35
3844;BME280;1937;51.444;6.484;2023-01-13T05:23:28;68302.34;;;8.62;92.07
3844;BME280;1937;51.444;6.484;2023-01-13T05:26:15;68311.66;;;8.53;91.72
3844;BME280;1937;51.444;6.484;2023-01-13T05:28:44;68308.47;;;8.59;91.77
3844;BME280;1937;51.444;6.484;2023-01-13T05:31:12;68356.41;;;8.60;92.00
3844;BME280;1937;51.444;6.484;2023-01-13T05:33:43;68325.59;;;8.67;91.16
3844;BME280;1937;51.444;6.484;2023-01-13T05:36:11;68382.44;;;8.70;91.32
3844;BME280;1937;51.444;6.484;2023-01-13T05:38:40;68321.66;;;8.68;91.19
3844;BME280;1937;51.444;6.484;2023-01-13T05:41:09;68353.00;;;8.75;91.44
3844;BME280;1937;51.444;6.484;2023-01-13T05:43:56;68348.78;;;8.85;91.17
3844;BME280;1937;51.444;6.484;2023-01-13T05:46:24;68254.56;;;8.66;91.00
3844;BME280;1937;51.444;6.484;2023-01-13T05:48:53;68262.06;;;8.61;91.52
3844;BME280;1937;51.444;6.484;2023-01-13T05:51:21;68227.00;;;8.53;91.71
3844;BME280;1937;51.444;6.484;2023-01-13T05:53:52;68299.03;;;8.51;91.24
3844;BME280;1937;51.444;6.484;2023-01-13T05:56:21;68263.94;;;8.43;91.96
3844;BME280;1937;51.444;6.484;2023-01-13T05:58:49;68233.78;;;8.37;92.34
3844;BME280;1937;51.444;6.484;2023-01-13T06:01:19;68251.97;;;8.35;91.95
3844;BME280;1937;51.444;6.484;2023-01-13T06:03:47;68209.94;;;8.32;91.55
3844;BME280;1937;51.444;6.484;2023-01-13T06:06:16;68265.38;;;8.35;91.05
3844;BME280;1937;51.444;6.484;2023-01-13T06:08:46;68221.41;;;8.33;90.93
3844;BME280;1937;51.444;6.484;2023-01-13T06:11:14;68202.81;;;8.39;90.54
3844;BME280;1937;51.444;6.484;2023-01-13T06:13:43;68168.13;;;8.33;90.86
3844;BME280;1937;51.444;6.484;2023-01-13T06:16:12;68138.00;;;8.20;91.04
3844;BME280;1937;51.444;6.484;2023-01-13T06:18:41;68185.88;;;8.29;90.11
3844;BME280;1937;51.444;6.484;2023-01-13T06:21:10;68128.72;;;8.23;90.42
3844;BME280;1937;51.444;6.484;2023-01-13T06:23:38;68094.03;;;8.18;90.36
3844;BME280;1937;51.444;6.484;2023-01-13T06:26:10;68081.97;;;8.23;89.52
3844;BME280;1937;51.444;6.484;2023-01-13T06:28:39;68100.41;;;8.37;89.16
3844;BME280;1937;51.444;6.484;2023-01-13T06:31:09;68079.16;;;8.32;89.11
3844;BME280;1937;51.444;6.484;2023-01-13T06:33:40;68031.03;;;8.26;87.86
3844;BME280;1937;51.444;6.484;2023-01-13T06:36:15;68030.25;;;8.27;88.60
3844;BME280;1937;51.444;6.484;2023-01-13T06:38:47;67981.56;;;8.20;87.80
3844;BME280;1937;51.444;6.484;2023-01-13T06:41:18;67977.78;;;8.26;88.15
3844;BME280;1937;51.444;6.484;2023-01-13T06:44:07;67992.22;;;8.23;87.70
3844;BME280;1937;51.444;6.484;2023-01-13T06:46:37;67942.38;;;8.15;88.02
3844;BME280;1937;51.444;6.484;2023-01-13T06:49:05;68007.91;;;8.32;87.51
3844;BME280;1937;51.444;6.484;2023-01-13T06:51:35;67983.72;;;8.25;87.83
3844;BME280;1937;51.444;6.484;2023-01-13T06:54:04;67900.63;;;8.10;87.97
3844;BME280;1937;51.444;6.484;2023-01-13T06:56:32;67945.25;;;8.25;87.59
3844;BME280;1937;51.444;6.484;2023-01-13T06:59:01;67920.09;;;8.14;87.81
3844;BME280;1937;51.444;6.484;2023-01-13T07:01:29;67943.91;;;8.19;88.55
3844;BME280;1937;51.444;6.484;2023-01-13T07:03:57;67905.75;;;8.10;88.31
3844;BME280;1937;51.444;6.484;2023-01-13T07:06:26;67957.91;;;8.20;87.89
3844;BME280;1937;51.444;6.484;2023-01-13T07:08:56;67931.03;;;8.26;87.92
3844;BME280;1937;51.444;6.484;2023-01-13T07:11:24;67952.22;;;8.37;87.44
3844;BME280;1937;51.444;6.484;2023-01-13T07:13:52;67948.38;;;8.25;87.23
3844;BME280;1937;51.444;6.484;2023-01-13T07:16:47;67923.94;;;8.44;86.58
3844;BME280;1937;51.444;6.484;2023-01-13T07:19:15;67932.09;;;8.40;86.27
3844;BME280;1937;51.444;6.484;2023-01-13T07:21:50;67944.31;;;8.57;85.41
3844;BME280;1937;51.444;6.484;2023-01-13T07:24:20;67911.25;;;8.48;86.43
3844;BME280;1937;51.444;6.484;2023-01-13T07:26:49;67908.19;;;8.41;85.92
3844;BME280;1937;51.444;6.484;2023-01-13T07:29:18;67862.91;;;8.33;85.73
3844;BME280;1937;51.444;6.484;2023-01-13T07:31:47;67850.59;;;8.40;85.66
3844;BME280;1937;51.444;6.484;2023-01-13T07:34:15;67815.41;;;8.45;84.60
3844;BME280;1937;51.444;6.484;2023-01-13T07:36:44;67838.03;;;8.49;84.44
3844;BME280;1937;51.444;6.484;2023-01-13T07:39:13;67820.03;;;8.38;86.00
3844;BME280;1937;51.444;6.484;2023-01-13T07:41:42;67824.22;;;8.35;85.21
3844;BME280;1937;51.444;6.484;2023-01-13T07:44:28;67854.00;;;8.50;85.27
3844;BME280;1937;51.444;6.484;2023-01-13T07:46:57;67819.34;;;8.44;85.18
3844;BME280;1937;51.444;6.484;2023-01-13T07:49:25;67800.94;;;8.48;84.68
3844;BME280;1937;51.444;6.484;2023-01-13T07:51:55;67816.03;;;8.57;83.57
3844;BME280;1937;51.444;6.484;2023-01-13T07:54:23;67776.34;;;8.45;84.26
3844;BME280;1937;51.444;6.484;2023-01-13T07:56:53;67785.69;;;8.53;84.34
3844;BME280;1937;51.444;6.484;2023-01-13T07:59:23;67819.31;;;8.62;83.77
3844;BME280;1937;51.444;6.484;2023-01-13T08:01:53;67800.19;;;8.61;83.84
3844;BME280;1937;51.444;6.484;2023-01-13T08:04:21;67814.81;;;8.74;83.58
3844;BME280;1937;51.444;6.484;2023-01-13T08:06:49;67808.25;;;8.63;84.37
3844;BME280;1937;51.444;6.484;2023-01-13T08:09:18;67809.78;;;8.67;83.94
3844;BME280;1937;51.444;6.484;2023-01-13T08:11:46;67809.19;;;8.67;83.92
3844;BME280;1937;51.444;6.484;2023-01-13T08:14:36;67747.34;;;8.57;84.33
3844;BME280;1937;51.444;6.484;2023-01-13T08:17:04;67740.69;;;8.54;84.82
3844;BME280;1937;51.444;6.484;2023-01-13T08:19:35;67760.00;;;8.42;85.62
3844;BME280;1937;51.444;6.484;2023-01-13T08:22:03;67801.41;;;8.44;85.52
3844;BME280;1937;51.444;6.484;2023-01-13T08:24:32;67797.56;;;8.50;85.05
3844;BME280;1937;51.444;6.484;2023-01-13T08:27:00;67790.97;;;8.57;84.63
3844;BME280;1937;51.444;6.484;2023-01-13T08:29:28;67829.66;;;8.55;84.57
3844;BME280;1937;51.444;6.484;2023-01-13T08:31:58;67739.16;;;8.50;85.22
3844;BME280;1937;51.444;6.484;2023-01-13T08:34:26;67768.31;;;8.53;84.49
3844;BME280;1937;51.444;6.484;2023-01-13T08:36:54;67811.28;;;8.59;84.66
3844;BME280;1937;51.444;6.484;2023-01-13T08:39:25;67766.16;;;8.38;85.35
3844;BME280;1937;51.444;6.484;2023-01-13T08:41:53;67820.31;;;8.47;85.23
3844;BME280;1937;51.444;6.484;2023-01-13T08:44:26;67792.31;;;8.45;85.34
3844;BME280;1937;51.444;6.484;2023-01-13T08:46:55;67762.34;;;8.44;85.89
3844;BME280;1937;51.444;6.484;2023-01-13T08:49:26;67791.38;;;8.42;85.93
3844;BME280;1937;51.444;6.484;2023-01-13T08:51:54;67772.34;;;8.35;85.91
3844;BME280;1937;51.444;6.484;2023-01-13T08:54:22;67820.97;;;8.41;86.38
3844;BME280;1937;51.444;6.484;2023-01-13T08:56:51;67778.06;;;8.35;86.66
3844;BME280;1937;51.444;6.484;2023-01-13T08:59:20;67798.84;;;8.44;86.20
3844;BME280;1937;51.444;6.484;2023-01-13T09:01:48;67823.09;;;8.45;86.28
3844;BME280;1937;51.444;6.484;2023-01-13T09:04:19;67817.25;;;8.40;86.23
3844;BME280;1937;51.444;6.484;2023-01-13T09:06:49;67821.13;;;8.46;86.77
3844;BME280;1937;51.444;6.484;2023-01-13T09:09:19;67808.78;;;8.53;85.70
3844;BME280;1937;51.444;6.484;2023-01-13T09:11:49;67842.19;;;8.64;85.56
3844;BME280;1937;51.444;6.484;2023-01-13T09:14:37;67848.63;;;8.70;86.04
3844;BME280;1937;51.444;6.484;2023-01-13T09:17:05;67842.25;;;8.75;85.25
3844;BME280;1937;51.444;6.484;2023-01-13T09:19:35;67828.94;;;8.79;84.41
3844;BME280;1937;51.444;6.484;2023-01-13T09:22:05;67819.72;;;8.76;84.23
3844;BME280;1937;51.444;6.484;2023-01-13T09:24:34;67803.38;;;8.73;85.10
3844;BME280;1937;51.444;6.484;2023-01-13T09:27:02;67878.13;;;8.93;84.80
3844;BME280;1937;51.444;6.484;2023-01-13T09:29:31;67861.84;;;9.01;84.52
3844;BME280;1937;51.444;6.484;2023-01-13T09:31:59;67866.06;;;9.09;83.69
3844;BME280;1937;51.444;6.484;2023-01-13T09:34:27;67859.06;;;9.14;84.18
3844;BME280;1937;51.444;6.484;2023-01-13T09:37:14;67836.72;;;9.01;84.58
3844;BME280;1937;51.444;6.484;2023-01-13T09:39:43;67816.97;;;8.89;84.93
3844;BME280;1937;51.444;6.484;2023-01-13T09:42:18;67831.56;;;8.90;85.02
3844;BME280;1937;51.444;6.484;2023-01-13T09:45:09;67822.81;;;8.94;84.48
3844;BME280;1937;51.444;6.484;2023-01-13T09:47:41;67833.00;;;9.00;84.20
3844;BME280;1937;51.444;6.484;2023-01-13T09:50:20;67878.19;;;9.04;84.16
3844;BME280;1937;51.444;6.484;2023-01-13T09:52:52;67816.09;;;9.08;83.64
3844;BME280;1937;51.444;6.484;2023-01-13T09:55:25;67870.63;;;9.20;83.93
3844;BME280;1937;51.444;6.484;2023-01-13T09:57:56;67869.88;;;9.32;82.84
3844;BME280;1937;51.444;6.484;2023-01-13T10:00:26;67834.47;;;9.22;82.94
3844;BME280;1937;51.444;6.484;2023-01-13T10:03:19;67841.59;;;9.21;82.21
3844;BME280;1937;51.444;6.484;2023-01-13T10:05:52;67819.97;;;9.14;83.10
3844;BME280;1937;51.444;6.484;2023-01-13T10:08:27;67784.84;;;9.12;82.21
3844;BME280;1937;51.444;6.484;2023-01-13T10:10:58;67774.94;;;9.26;81.81
3844;BME280;1937;51.444;6.484;2023-01-13T10:13:51;67812.53;;;9.34;82.32
3844;BME280;1937;51.444;6.484;2023-01-13T10:16:28;67851.22;;;9.38;81.75
3844;BME280;1937;51.444;6.484;2023-01-13T10:19:05;67828.19;;;9.43;81.79
3844;BME280;1937;51.444;6.484;2023-01-13T10:21:55;67799.22;;;9.27;81.91
3844;BME280;1937;51.444;6.484;2023-01-13T10:24:42;67790.25;;;9.43;81.25
3844;BME280;1937;51.444;6.484;2023-01-13T10:27:21;67796.00;;;9.55;81.14
3844;BME280;1937;51.444;6.484;2023-01-13T10:29:51;67801.75;;;9.78;81.27
3844;BME280;1937;51.444;6.484;2023-01-13T10:32:20;67841.16;;;9.99;79.78
3844;BME280;1937;51.444;6.484;2023-01-13T10:34:50;67840.78;;;9.85;80.00
3844;BME280;1937;51.444;6.484;2023-01-13T10:37:25;67768.09;;;9.91;79.34
3844;BME280;1937;51.444;6.484;2023-01-13T10:40:00;67798.50;;;9.95;79.48
3844;BME280;1937;51.444;6.484;2023-01-13T10:42:29;67762.25;;;9.75;79.10
3844;BME280;1937;51.444;6.484;2023-01-13T10:44:59;67708.84;;;9.75;79.82
3844;BME280;1937;51.444;6.484;2023-01-13T10:47:28;67794.50;;;9.85;81.49
3844;BME280;1937;51.444;6.484;2023-01-13T10:50:17;67796.97;;;9.92;80.53
3844;BME280;1937;51.444;6.484;2023-01-13T10:52:57;67760.75;;;9.71;80.06
3844;BME280;1937;51.444;6.484;2023-01-13T10:55:30;67717.16;;;9.65;80.69
3844;BME280;1937;51.444;6.484;2023-01-13T10:58:12;67714.72;;;9.58;79.58
3844;BME280;1937;51.444;6.484;2023-01-13T11:00:41;67715.63;;;9.50;79.27
3844;BME280;1937;51.444;6.484;2023-01-13T11:03:20;67729.66;;;9.62;79.76
3844;BME280;1937;51.444;6.484;2023-01-13T11:05:51;67727.66;;;9.63;79.78
3844;BME280;1937;51.444;6.484;2023-01-13T11:08:23;67760.28;;;9.75;80.47
3844;BME280;1937;51.444;6.484;2023-01-13T11:10:55;67755.56;;;9.60;81.54
3844;BME280;1937;51.444;6.484;2023-01-13T11:13:27;67765.25;;;9.49;83.13
3844;BME280;1937;51.444;6.484;2023-01-13T11:16:00;67816.25;;;9.86;81.19
3844;BME280;1937;51.444;6.484;2023-01-13T11:18:36;67741.00;;;9.81;80.74
3844;BME280;1937;51.444;6.484;2023-01-13T11:21:10;67783.53;;;9.91;80.46
3844;BME280;1937;51.444;6.484;2023-01-13T11:23:49;67765.88;;;9.94;79.82
3844;BME280;1937;51.444;6.484;2023-01-13T11:26:25;67770.06;;;9.91;80.03
3844;BME280;1937;51.444;6.484;2023-01-13T11:28:59;67793.91;;;9.96;81.05
3844;BME280;1937;51.444;6.484;2023-01-13T11:31:32;67753.16;;;9.65;82.49
3844;BME280;1937;51.444;6.484;2023-01-13T11:34:11;67737.25;;;9.35;83.81
3844;BME280;1937;51.444;6.484;2023-01-13T11:36:46;67755.34;;;9.40;84.56
3844;BME280;1937;51.444;6.484;2023-01-13T11:39:22;67775.50;;;9.26;85.89
3844;BME280;1937;51.444;6.484;2023-01-13T11:41:58;67799.78;;;9.16;86.65
3844;BME280;1937;51.444;6.484;2023-01-13T11:44:48;67790.06;;;9.06;87.48
3844;BME280;1937;51.444;6.484;2023-01-13T11:47:22;67831.59;;;9.01;88.06
3844;BME280;1937;51.444;6.484;2023-01-13T11:49:52;67770.88;;;8.82;90.34
3844;BME280;1937;51.444;6.484;2023-01-13T11:52:24;67865.00;;;8.84;89.23
3844;BME280;1937;51.444;6.484;2023-01-13T11:55:11;67823.78;;;8.68;90.75
3844;BME280;1937;51.444;6.484;2023-01-13T11:57:51;67875.16;;;8.79;91.11
3844;BME280;1937;51.444;6.484;2023-01-13T12:00:28;67970.63;;;8.86;91.22
3844;BME280;1937;51.444;6.484;2023-01-13T12:03:15;67955.81;;;8.87;90.25
3844;BME280;1937;51.444;6.484;2023-01-13T12:05:52;67938.50;;;8.98;90.06
3844;BME280;1937;51.444;6.484;2023-01-13T12:08:37;67943.09;;;9.09;88.77
3844;BME280;1937;51.444;6.484;2023-01-13T12:11:17;67929.06;;;9.08;88.88
3844;BME280;1937;51.444;6.484;2023-01-13T12:14:05;67895.97;;;9.17;86.97
3844;BME280;1937;51.444;6.484;2023-01-13T12:16:37;67875.44;;;9.17;87.42
3844;BME280;1937;51.444;6.484;2023-01-13T12:19:20;67897.50;;;9.21;87.55
3844;BME280;1937;51.444;6.484;2023-01-13T12:22:01;67914.03;;;9.39;87.19
3844;BME280;1937;51.444;6.484;2023-01-13T12:24:33;67884.19;;;9.25;86.98
3844;BME280;1937;51.444;6.484;2023-01-13T12:27:04;67878.34;;;9.20;87.43
3844;BME280;1937;51.444;6.484;2023-01-13T12:29:40;67852.31;;;9.17;87.41
3844;BME280;1937;51.444;6.484;2023-01-13T12:32:13;67918.63;;;9.21;87.02
3844;BME280;1937;51.444;6.484;2023-01-13T12:35:01;67911.38;;;9.17;87.34
3844;BME280;1937;51.444;6.484;2023-01-13T12:37:36;67886.38;;;9.11;87.17
3844;BME280;1937;51.444;6.484;2023-01-13T12:40:32;67866.97;;;9.01;88.22
3844;BME280;1937;51.444;6.484;2023-01-13T12:43:10;67891.38;;;9.07;88.71
3844;BME280;1937;51.444;6.484;2023-01-13T12:49:15;67934.59;;;9.11;88.26
3844;BME280;1937;51.444;6.484;2023-01-13T12:55:13;67951.56;;;9.25;87.36
3844;BME280;1937;51.444;6.484;2023-01-13T12:57:54;67952.78;;;9.37;87.27
3844;BME280;1937;51.444;6.484;2023-01-13T13:00:24;67884.63;;;9.10;87.41
3844;BME280;1937;51.444;6.484;2023-01-13T13:03:27;67902.50;;;9.16;88.17
3844;BME280;1937;51.444;6.484;2023-01-13T13:06:07;67933.16;;;9.29;86.65
3844;BME280;1937;51.444;6.484;2023-01-13T13:08:45;67936.97;;;9.24;86.34
3844;BME280;1937;51.444;6.484;2023-01-13T13:11:37;67893.13;;;9.08;87.79
3844;BME280;1937;51.444;6.484;2023-01-13T13:14:59;67887.91;;;9.15;87.41
3844;BME280;1937;51.444;6.484;2023-01-13T13:17:57;67951.81;;;9.23;87.81
3844;BME280;1937;51.444;6.484;2023-01-13T13:20:52;67892.81;;;9.17;88.16
3844;BME280;1937;51.444;6.484;2023-01-13T13:23:39;67935.22;;;9.22;87.26
3844;BME280;1937;51.444;6.484;2023-01-13T13:26:18;67898.53;;;9.17;86.87
3844;BME280;1937;51.444;6.484;2023-01-13T13:28:55;67895.88;;;9.24;86.20
3844;BME280;1937;51.444;6.484;2023-01-13T13:31:34;67870.84;;;9.07;86.93
3844;BME280;1937;51.444;6.484;2023-01-13T13:34:23;67914.97;;;9.14;86.21
3844;BME280;1937;51.444;6.484;2023-01-13T13:37:24;67868.03;;;9.09;86.41
3844;BME280;1937;51.444;6.484;2023-01-13T13:39:55;67858.94;;;9.10;86.79
3844;BME280;1937;51.444;6.484;2023-01-13T13:42:44;67852.88;;;9.07;87.64
3844;BME280;1937;51.444;6.484;2023-01-13T13:45:34;67873.22;;;8.91;89.35
3844;BME280;1937;51.444;6.484;2023-01-13T13:48:22;67859.84;;;8.73;91.23
3844;BME280;1937;51.444;6.484;2023-01-13T13:50:52;67966.69;;;8.70;92.31
3844;BME280;1937;51.444;6.484;2023-01-13T13:53:27;67980.31;;;8.50;94.15
3844;BME280;1937;51.444;6.484;2023-01-13T13:55:59;68003.84;;;8.46;93.90
3844;BME280;1937;51.444;6.484;2023-01-13T13:58:31;68084.84;;;8.56;94.29
3844;BME280;1937;51.444;6.484;2023-01-13T14:01:03;68118.31;;;8.68;93.95
3844;BME280;1937;51.444;6.484;2023-01-13T14:03:34;68156.69;;;8.81;94.18
3844;BME280;1937;51.444;6.484;2023-01-13T14:06:05;68166.97;;;8.81;93.97
3844;BME280;1937;51.444;6.484;2023-01-13T14:08:36;68161.28;;;8.74;93.92
3844;BME280;1937;51.444;6.484;2023-01-13T14:11:27;68211.69;;;8.95;93.46
3844;BME280;1937;51.444;6.484;2023-01-13T14:14:04;68198.50;;;8.86;93.11
3844;BME280;1937;51.444;6.484;2023-01-13T14:16:34;68182.91;;;8.88;92.80